createdAt,value
2019-05-03T00:02:41.605Z,12.04
2019-05-03T00:05:25.748Z,12.11
2019-05-03T00:07:57.223Z,12.04
2019-05-03T00:10:26.736Z,12.08
2019-05-03T00:12:56.524Z,12.04
2019-05-03T00:15:27.991Z,12.11
2019-05-03T00:17:57.434Z,12.07
2019-05-03T00:20:27.175Z,12.02
2019-05-03T00:22:56.613Z,11.93
2019-05-03T00:25:26.405Z,12.02
2019-05-03T00:27:56.116Z,11.92
2019-05-03T00:30:25.569Z,11.90
2019-05-03T00:32:55.003Z,11.89
2019-05-03T00:35:26.365Z,11.89
2019-05-03T00:37:57.719Z,11.82
2019-05-03T00:40:29.872Z,11.88
2019-05-03T00:43:02.163Z,11.83
2019-05-03T00:45:31.647Z,11.90
2019-05-03T00:48:01.999Z,11.93
2019-05-03T00:50:32.088Z,11.96
2019-05-03T00:53:02.360Z,12.03
2019-05-03T00:55:32.831Z,12.03
2019-05-03T00:58:02.643Z,12.01
2019-05-03T01:00:32.448Z,11.99
2019-05-03T01:03:02.388Z,11.95
2019-05-03T01:05:33.136Z,11.86
2019-05-03T01:08:02.615Z,11.95
2019-05-03T01:10:33.071Z,11.93
2019-05-03T01:13:02.971Z,12.06
2019-05-03T01:15:40.044Z,11.97
2019-05-03T01:18:12.336Z,12.00
2019-05-03T01:20:42.650Z,11.93
2019-05-03T01:23:12.487Z,11.82
2019-05-03T01:25:42.877Z,11.74
2019-05-03T01:28:12.414Z,11.71
2019-05-03T01:30:42.550Z,11.69
2019-05-03T01:33:12.307Z,11.75
2019-05-03T01:35:42.768Z,11.74
2019-05-03T01:38:12.540Z,11.73
2019-05-03T01:40:42.254Z,11.75
2019-05-03T01:43:11.844Z,11.71
2019-05-03T01:45:42.494Z,11.68
2019-05-03T01:48:28.381Z,11.62
2019-05-03T01:51:14.493Z,11.66
2019-05-03T01:53:44.169Z,11.65
2019-05-03T01:56:13.599Z,11.61
2019-05-03T01:58:43.395Z,11.65
2019-05-03T02:01:31.605Z,11.70
2019-05-03T02:04:18.910Z,11.70
2019-05-03T02:06:48.607Z,11.76
2019-05-03T02:09:18.382Z,11.74
2019-05-03T02:11:48.072Z,11.75
2019-05-03T02:14:17.799Z,11.78
2019-05-03T02:16:47.246Z,11.79
2019-05-03T02:19:16.680Z,11.71
2019-05-03T02:21:46.127Z,11.70
2019-05-03T02:24:15.919Z,11.67
2019-05-03T02:26:45.349Z,11.70
2019-05-03T02:29:14.789Z,11.68
2019-05-03T02:31:44.476Z,11.67
2019-05-03T02:34:14.094Z,11.67
2019-05-03T02:36:43.525Z,11.69
2019-05-03T02:39:14.687Z,11.68
2019-05-03T02:41:47.806Z,11.66
2019-05-03T02:44:17.228Z,11.69
2019-05-03T02:47:05.625Z,11.70
2019-05-03T02:49:39.782Z,11.67
2019-05-03T02:52:10.880Z,11.74
2019-05-03T02:54:40.321Z,11.66
2019-05-03T02:57:10.088Z,11.68
2019-05-03T02:59:39.536Z,11.62
2019-05-03T03:02:09.299Z,11.65
2019-05-03T03:04:39.110Z,11.56
2019-05-03T03:07:09.089Z,11.59
2019-05-03T03:09:38.873Z,11.60
2019-05-03T03:12:09.456Z,11.63
2019-05-03T03:14:40.944Z,11.59
2019-05-03T03:17:12.196Z,11.61
2019-05-03T03:19:46.152Z,11.58
2019-05-03T03:22:18.674Z,11.60
2019-05-03T03:24:52.454Z,11.63
2019-05-03T03:27:25.697Z,11.65
2019-05-03T03:30:08.032Z,11.64
2019-05-03T03:32:41.456Z,11.64
2019-05-03T03:35:22.518Z,11.62
2019-05-03T03:37:52.113Z,11.65
2019-05-03T03:40:25.240Z,11.63
2019-05-03T03:42:55.697Z,11.60
2019-05-03T03:45:25.756Z,11.62
2019-05-03T03:47:56.602Z,11.51
2019-05-03T03:50:27.594Z,11.56
2019-05-03T03:52:59.702Z,11.60
2019-05-03T03:55:32.789Z,11.61
2019-05-03T03:58:02.794Z,11.60
2019-05-03T04:00:32.575Z,11.60
2019-05-03T04:03:02.452Z,11.61
2019-05-03T04:05:31.968Z,11.60
2019-05-03T04:08:01.950Z,11.59
2019-05-03T04:10:32.176Z,11.58
2019-05-03T04:13:01.943Z,11.54
2019-05-03T04:15:45.290Z,11.53
2019-05-03T04:18:25.802Z,11.56
2019-05-03T04:20:56.378Z,11.53
2019-05-03T04:23:26.664Z,11.56
2019-05-03T04:25:56.972Z,11.54
2019-05-03T04:28:27.070Z,11.57
2019-05-03T04:30:56.879Z,11.53
2019-05-03T04:33:27.022Z,11.61
2019-05-03T04:35:56.743Z,11.58
2019-05-03T04:38:26.514Z,11.55
2019-05-03T04:40:56.406Z,11.52
2019-05-03T04:43:26.673Z,11.51
2019-05-03T04:46:00.666Z,11.48
2019-05-03T04:48:30.353Z,11.46
2019-05-03T04:50:59.805Z,11.42
2019-05-03T04:53:30.412Z,11.41
2019-05-03T04:56:00.233Z,11.45
2019-05-03T04:58:30.027Z,11.54
2019-05-03T05:00:59.727Z,11.44
2019-05-03T05:03:29.450Z,11.44
2019-05-03T05:05:59.680Z,11.47
2019-05-03T05:08:29.524Z,11.53
2019-05-03T05:10:59.292Z,11.46
2019-05-03T05:13:29.089Z,11.57
2019-05-03T05:15:58.811Z,11.57
2019-05-03T05:18:35.653Z,11.52
2019-05-03T05:21:09.459Z,11.49
2019-05-03T05:23:40.841Z,11.53
2019-05-03T05:26:17.946Z,11.47
2019-05-03T05:28:49.037Z,11.48
2019-05-03T05:31:18.538Z,11.44
2019-05-03T05:33:48.278Z,11.50
2019-05-03T05:36:17.732Z,11.49
2019-05-03T05:38:47.164Z,11.50
2019-05-03T05:41:16.891Z,11.53
2019-05-03T05:43:46.327Z,11.54
2019-05-03T05:46:16.592Z,11.54
2019-05-03T05:48:50.539Z,11.52
2019-05-03T05:51:19.984Z,11.54
2019-05-03T05:53:49.672Z,11.61
2019-05-03T05:56:25.067Z,11.60
2019-05-03T05:58:58.701Z,11.61
2019-05-03T06:01:30.169Z,11.63
2019-05-03T06:03:59.939Z,11.65
2019-05-03T06:06:40.829Z,11.62
2019-05-03T06:09:12.256Z,11.61
2019-05-03T06:11:52.007Z,11.58
2019-05-03T06:14:24.523Z,11.54
2019-05-03T06:16:55.385Z,11.54
2019-05-03T06:19:26.772Z,11.43
2019-05-03T06:21:58.093Z,11.37
2019-05-03T06:24:29.244Z,11.40
2019-05-03T06:27:00.325Z,11.28
2019-05-03T06:29:30.023Z,11.32
2019-05-03T06:32:06.817Z,11.24
2019-05-03T06:34:36.690Z,11.16
2019-05-03T06:37:11.516Z,11.23
2019-05-03T06:39:41.194Z,11.13
2019-05-03T06:42:17.502Z,11.04
2019-05-03T06:44:41.819Z,11.00
2019-05-03T06:47:12.117Z,10.93
2019-05-03T06:49:44.839Z,10.95
2019-05-03T06:52:14.731Z,10.93
2019-05-03T06:54:44.970Z,10.95
2019-05-03T06:57:16.466Z,10.89
2019-05-03T06:59:56.633Z,10.86
2019-05-03T07:02:28.651Z,10.88
2019-05-03T07:05:02.566Z,10.91
2019-05-03T07:07:44.322Z,10.86
2019-05-03T07:10:24.931Z,10.86
2019-05-03T07:12:58.737Z,10.85
2019-05-03T07:15:28.246Z,10.93
2019-05-03T07:17:58.272Z,10.97
2019-05-03T07:20:28.081Z,11.05
2019-05-03T07:22:57.796Z,11.08
2019-05-03T07:25:27.228Z,11.08
2019-05-03T07:27:56.783Z,11.08
2019-05-03T07:30:26.213Z,11.13
2019-05-03T07:32:57.289Z,11.28
2019-05-03T07:35:27.060Z,11.17
2019-05-03T07:37:56.768Z,11.16
2019-05-03T07:40:26.206Z,11.13
2019-05-03T07:42:55.766Z,10.96
2019-05-03T07:45:25.560Z,10.95
2019-05-03T07:47:55.773Z,10.94
2019-05-03T07:50:26.133Z,10.90
2019-05-03T07:52:55.935Z,10.94
2019-05-03T07:55:45.522Z,10.78
2019-05-03T07:58:16.746Z,10.88
2019-05-03T08:00:46.514Z,10.84
2019-05-03T08:03:15.960Z,10.88
2019-05-03T08:05:45.908Z,10.90
2019-05-03T08:08:15.694Z,10.87
2019-05-03T08:10:45.403Z,10.86
2019-05-03T08:13:15.223Z,10.87
2019-05-03T08:15:45.275Z,10.88
2019-05-03T08:18:15.475Z,10.98
2019-05-03T08:20:45.423Z,10.93
2019-05-03T08:23:26.259Z,10.99
2019-05-03T08:25:46.601Z,11.02
2019-05-03T08:28:16.045Z,10.97
2019-05-03T08:31:04.861Z,11.14
2019-05-03T08:33:48.241Z,11.12
2019-05-03T08:36:17.680Z,11.20
2019-05-03T08:38:47.130Z,11.23
2019-05-03T08:41:18.480Z,11.22
2019-05-03T08:43:48.153Z,11.25
2019-05-03T08:46:17.603Z,11.33
2019-05-03T08:48:47.390Z,11.43
2019-05-03T08:51:17.096Z,11.54
2019-05-03T08:53:46.920Z,11.60
2019-05-03T08:56:16.372Z,11.64
2019-05-03T08:58:45.812Z,11.70
2019-05-03T09:01:15.593Z,11.63
2019-05-03T09:03:45.748Z,11.62
2019-05-03T09:06:15.629Z,11.80
2019-05-03T09:08:45.781Z,11.86
2019-05-03T09:11:17.083Z,11.83
2019-05-03T09:13:55.601Z,11.96
2019-05-03T09:16:25.125Z,11.97
2019-05-03T09:18:55.116Z,11.99
2019-05-03T09:21:25.466Z,12.04
2019-05-03T09:23:55.524Z,12.10
2019-05-03T09:26:29.159Z,12.17
2019-05-03T09:28:56.636Z,12.23
2019-05-03T09:31:26.158Z,12.34
2019-05-03T09:33:55.592Z,12.45
2019-05-03T09:36:25.450Z,12.60
2019-05-03T09:38:55.212Z,12.62
2019-05-03T09:41:25.640Z,12.60
2019-05-03T09:43:55.673Z,12.44
2019-05-03T09:46:26.600Z,12.69
2019-05-03T09:49:03.301Z,12.78
2019-05-03T09:51:27.509Z,12.86
2019-05-03T09:53:58.588Z,12.87
2019-05-03T09:56:55.025Z,12.98
2019-05-03T09:59:16.754Z,13.14
2019-05-03T10:01:46.294Z,13.07
2019-05-03T10:04:17.994Z,13.08
2019-05-03T10:06:47.298Z,13.11
2019-05-03T10:09:16.737Z,13.18
2019-05-03T10:11:47.020Z,13.30
2019-05-03T10:14:16.753Z,13.29
2019-05-03T10:16:59.484Z,13.46
2019-05-03T10:19:39.702Z,13.52
2019-05-03T10:22:00.595Z,13.33
2019-05-03T10:24:30.430Z,13.39
2019-05-03T10:27:01.424Z,13.33
2019-05-03T10:29:32.847Z,13.12
2019-05-03T10:32:15.117Z,13.00
2019-05-03T10:34:46.759Z,12.99
2019-05-03T10:37:29.848Z,12.87
2019-05-03T10:40:05.145Z,12.88
2019-05-03T10:42:35.321Z,13.05
2019-05-03T10:45:05.789Z,13.06
2019-05-03T10:47:35.240Z,13.02
2019-05-03T10:50:08.971Z,13.07
2019-05-03T10:52:40.425Z,13.18
2019-05-03T10:55:10.331Z,12.99
2019-05-03T10:57:41.423Z,12.98
2019-05-03T11:00:39.359Z,13.08
2019-05-03T11:02:51.129Z,13.24
2019-05-03T11:05:20.843Z,13.39
2019-05-03T11:07:50.559Z,13.55
2019-05-03T11:10:20.263Z,13.79
2019-05-03T11:12:49.971Z,13.76
2019-05-03T11:15:19.785Z,13.82
2019-05-03T11:17:49.244Z,13.69
2019-05-03T11:20:30.786Z,13.51
2019-05-03T11:22:57.611Z,13.47
2019-05-03T11:25:27.295Z,13.36
2019-05-03T11:27:57.966Z,13.27
2019-05-03T11:30:27.405Z,13.28
2019-05-03T11:33:01.151Z,13.28
2019-05-03T11:35:32.506Z,13.28
2019-05-03T11:38:05.464Z,13.28
2019-05-03T11:40:35.313Z,13.27
2019-05-03T11:43:04.935Z,13.19
2019-05-03T11:45:35.366Z,13.70
2019-05-03T11:48:05.392Z,17.21
2019-05-03T11:50:35.065Z,18.93
2019-05-03T11:53:05.155Z,19.19
2019-05-03T11:55:35.329Z,20.46
2019-05-03T11:58:06.707Z,21.84
2019-05-03T12:00:38.106Z,24.49
2019-05-03T12:03:09.200Z,20.59
2019-05-03T12:05:39.184Z,19.80
2019-05-03T12:08:08.962Z,19.70
2019-05-03T12:10:51.784Z,19.48
2019-05-03T12:13:17.284Z,19.06
2019-05-03T12:15:46.723Z,17.70
2019-05-03T12:18:17.219Z,17.07
2019-05-03T12:20:48.197Z,16.43
2019-05-03T12:23:18.992Z,15.93
2019-05-03T12:25:49.376Z,15.87
2019-05-03T12:28:19.128Z,15.96
2019-05-03T12:30:48.832Z,15.77
2019-05-03T12:33:18.431Z,15.73
2019-05-03T12:35:47.864Z,15.22
2019-05-03T12:38:17.309Z,14.94
2019-05-03T12:40:47.267Z,14.78
2019-05-03T12:43:16.711Z,14.65
2019-05-03T12:45:46.163Z,14.56
2019-05-03T12:48:15.878Z,14.50
2019-05-03T12:50:46.752Z,14.58
2019-05-03T12:53:16.504Z,14.55
2019-05-03T12:55:45.948Z,14.63
2019-05-03T12:58:15.739Z,14.78
2019-05-03T13:00:58.731Z,15.02
2019-05-03T13:03:30.123Z,15.19
2019-05-03T13:05:59.577Z,15.26
2019-05-03T13:08:41.007Z,15.23
2019-05-03T13:11:10.685Z,15.25
2019-05-03T13:13:40.194Z,15.21
2019-05-03T13:16:11.386Z,15.40
2019-05-03T13:18:40.883Z,15.53
2019-05-03T13:21:10.407Z,15.69
2019-05-03T13:23:39.844Z,15.66
2019-05-03T13:26:09.287Z,15.61
2019-05-03T13:28:39.093Z,15.50
2019-05-03T13:31:08.532Z,15.44
2019-05-03T13:33:38.289Z,15.30
2019-05-03T13:36:08.009Z,15.19
2019-05-03T13:38:37.711Z,15.15
2019-05-03T13:41:07.517Z,15.29
2019-05-03T13:43:37.224Z,15.18
2019-05-03T13:46:09.905Z,15.38
2019-05-03T13:48:45.561Z,15.44
2019-05-03T13:51:10.778Z,15.44
2019-05-03T13:53:40.215Z,15.49
2019-05-03T13:56:09.673Z,15.89
2019-05-03T13:58:39.108Z,15.56
2019-05-03T14:01:08.548Z,15.46
2019-05-03T14:03:38.048Z,15.52
2019-05-03T14:06:09.067Z,15.46
2019-05-03T14:08:39.156Z,15.37
2019-05-03T14:11:08.614Z,15.21
2019-05-03T14:13:38.336Z,15.25
2019-05-03T14:16:07.786Z,15.25
2019-05-03T14:18:37.554Z,15.09
2019-05-03T14:21:18.027Z,14.94
2019-05-03T14:24:05.224Z,15.12
2019-05-03T14:26:35.118Z,15.17
2019-05-03T14:29:05.747Z,15.21
2019-05-03T14:31:35.290Z,15.35
2019-05-03T14:34:05.979Z,15.14
2019-05-03T14:36:36.089Z,14.93
2019-05-03T14:39:10.025Z,14.88
2019-05-03T14:41:39.393Z,14.82
2019-05-03T14:44:09.162Z,14.85
2019-05-03T14:46:38.972Z,14.87
2019-05-03T14:49:08.677Z,14.85
2019-05-03T14:51:38.393Z,14.93
2019-05-03T14:54:09.015Z,15.02
2019-05-03T14:56:45.341Z,15.10
2019-05-03T14:59:34.691Z,15.06
2019-05-03T15:02:20.998Z,15.09
2019-05-03T15:04:50.760Z,15.26
2019-05-03T15:07:20.470Z,15.49
2019-05-03T15:09:50.184Z,15.59
2019-05-03T15:12:19.654Z,15.54
2019-05-03T15:14:49.252Z,15.60
2019-05-03T15:17:18.819Z,15.63
2019-05-03T15:19:48.198Z,15.62
2019-05-03T15:22:17.706Z,15.58
2019-05-03T15:24:47.327Z,15.43
2019-05-03T15:27:16.783Z,15.31
2019-05-03T15:29:46.219Z,15.27
2019-05-03T15:32:15.670Z,15.12
2019-05-03T15:34:45.110Z,15.20
2019-05-03T15:37:14.968Z,15.10
2019-05-03T15:39:45.133Z,15.12
2019-05-03T15:42:15.679Z,14.93
2019-05-03T15:44:55.447Z,15.08
2019-05-03T15:47:29.162Z,15.04
2019-05-03T15:49:58.934Z,15.06
2019-05-03T15:52:28.381Z,14.90
2019-05-03T15:54:58.151Z,14.93
2019-05-03T15:57:27.858Z,14.85
2019-05-03T15:59:57.285Z,14.83
2019-05-03T16:02:26.806Z,14.86
2019-05-03T16:04:58.638Z,14.84
2019-05-03T16:07:27.816Z,14.77
2019-05-03T16:09:57.324Z,14.64
2019-05-03T16:12:26.763Z,14.56
2019-05-03T16:14:56.202Z,14.55
2019-05-03T16:17:25.640Z,14.53
2019-05-03T16:19:55.827Z,14.45
2019-05-03T16:22:25.434Z,14.61
2019-05-03T16:24:55.664Z,14.68
2019-05-03T16:27:27.753Z,14.55
2019-05-03T16:29:57.458Z,14.55
2019-05-03T16:32:27.165Z,14.54
2019-05-03T16:34:56.602Z,14.52
2019-05-03T16:37:26.379Z,14.65
2019-05-03T16:39:57.812Z,14.82
2019-05-03T16:42:27.643Z,14.99
2019-05-03T16:44:57.085Z,14.98
2019-05-03T16:47:26.530Z,14.96
2019-05-03T16:49:56.254Z,14.89
2019-05-03T16:52:25.804Z,14.82
2019-05-03T16:54:55.470Z,14.73
2019-05-03T16:57:25.175Z,14.73
2019-05-03T16:59:55.126Z,14.71
2019-05-03T17:02:24.695Z,14.63
2019-05-03T17:04:55.903Z,14.46
2019-05-03T17:10:19.028Z,14.35
2019-05-03T17:12:48.740Z,14.30
2019-05-03T17:15:18.841Z,14.26
2019-05-03T17:17:48.557Z,14.10
2019-05-03T17:20:18.056Z,13.98
2019-05-03T17:22:47.501Z,13.99
2019-05-03T17:25:16.945Z,13.95
2019-05-03T17:27:46.666Z,13.95
2019-05-03T17:30:16.338Z,13.83
2019-05-03T17:32:46.085Z,13.84
2019-05-03T17:35:16.106Z,13.79
2019-05-03T17:37:45.548Z,13.76
2019-05-03T17:40:15.322Z,13.74
2019-05-03T17:42:59.882Z,13.68
2019-05-03T17:45:35.100Z,13.63
2019-05-03T17:48:05.333Z,13.68
2019-05-03T17:50:35.455Z,13.68
2019-05-03T17:53:09.528Z,13.63
2019-05-03T17:55:46.441Z,13.66
2019-05-03T17:58:17.792Z,13.72
2019-05-03T18:01:05.624Z,13.64
2019-05-03T18:03:36.870Z,13.61
2019-05-03T18:06:11.078Z,13.57
2019-05-03T18:08:50.700Z,13.48
2019-05-03T18:11:25.260Z,13.49
2019-05-03T18:13:55.192Z,13.45
2019-05-03T18:16:24.603Z,13.37
2019-05-03T18:18:54.752Z,13.37
2019-05-03T18:21:24.706Z,13.39
2019-05-03T18:23:54.610Z,13.37
2019-05-03T18:26:24.941Z,13.34
2019-05-03T18:28:55.317Z,13.35
2019-05-03T18:31:25.157Z,13.31
2019-05-03T18:33:54.898Z,13.30
2019-05-03T18:36:25.248Z,13.27
2019-05-03T18:38:55.331Z,13.25
2019-05-03T18:41:25.425Z,13.23
2019-05-03T18:44:07.353Z,13.22
2019-05-03T18:46:38.686Z,13.19
2019-05-03T18:49:08.202Z,13.18
2019-05-03T18:51:37.635Z,13.08
2019-05-03T18:54:07.405Z,13.05
2019-05-03T18:56:37.317Z,13.03
2019-05-03T18:59:07.128Z,12.97
2019-05-03T19:01:37.448Z,12.95
2019-05-03T19:04:08.621Z,12.90
2019-05-03T19:06:38.404Z,12.84
2019-05-03T19:09:22.667Z,12.82
2019-05-03T19:11:54.876Z,12.70
2019-05-03T19:14:26.067Z,12.60
2019-05-03T19:16:57.203Z,12.65
2019-05-03T19:19:35.226Z,12.58
2019-05-03T19:22:05.203Z,12.62
2019-05-03T19:24:35.142Z,12.49
2019-05-03T19:27:06.592Z,12.51
2019-05-03T19:29:37.227Z,12.46
2019-05-03T19:32:06.668Z,12.35
2019-05-03T19:34:47.400Z,12.40
2019-05-03T19:37:08.094Z,12.29
2019-05-03T19:39:37.797Z,12.12
2019-05-03T19:42:07.510Z,12.08
2019-05-03T19:44:37.090Z,12.08
2019-05-03T19:47:06.925Z,11.97
2019-05-03T19:49:36.705Z,11.95
2019-05-03T19:52:06.450Z,11.96
2019-05-03T19:54:36.570Z,11.91
2019-05-03T19:57:06.276Z,11.86
2019-05-03T19:59:50.574Z,11.75
2019-05-03T20:02:25.788Z,11.77
2019-05-03T20:05:12.266Z,11.61
2019-05-03T20:07:59.557Z,11.48
2019-05-03T20:10:30.855Z,11.51
2019-05-03T20:13:00.296Z,11.51
2019-05-03T20:15:30.050Z,11.49
2019-05-03T20:18:00.383Z,11.36
2019-05-03T20:20:30.152Z,11.38
2019-05-03T20:22:59.595Z,11.46
2019-05-03T20:25:29.304Z,11.44
2019-05-03T20:27:58.793Z,11.43
2019-05-03T20:30:28.241Z,11.52
2019-05-03T20:32:57.672Z,11.42
2019-05-03T20:35:27.417Z,11.39
2019-05-03T20:37:57.125Z,11.38
2019-05-03T20:40:26.841Z,11.41
2019-05-03T20:43:00.545Z,11.44
2019-05-03T20:45:30.371Z,11.41
2019-05-03T20:48:00.548Z,11.36
2019-05-03T20:50:29.991Z,11.27
2019-05-03T20:52:59.444Z,11.31
2019-05-03T20:55:28.961Z,11.32
2019-05-03T20:57:58.397Z,11.19
2019-05-03T21:00:28.554Z,11.25
2019-05-03T21:02:58.007Z,11.29
2019-05-03T21:05:31.773Z,11.30
2019-05-03T21:07:58.954Z,11.32
2019-05-03T21:10:28.672Z,11.30
2019-05-03T21:12:58.376Z,11.31
2019-05-03T21:15:32.191Z,11.30
2019-05-03T21:18:12.144Z,11.19
2019-05-03T21:20:45.046Z,11.17
2019-05-03T21:23:19.062Z,11.22
2019-05-03T21:26:09.066Z,11.22
2019-05-03T21:28:34.546Z,11.23
2019-05-03T21:31:05.615Z,11.20
2019-05-03T21:33:35.661Z,11.16
2019-05-03T21:36:05.101Z,11.26
2019-05-03T21:38:35.532Z,11.32
2019-05-03T21:41:05.941Z,11.27
2019-05-03T21:43:35.481Z,11.31
2019-05-03T21:46:10.459Z,11.24
2019-05-03T21:48:50.202Z,11.26
2019-05-03T21:51:19.636Z,11.19
2019-05-03T21:53:49.427Z,11.14
2019-05-03T21:56:18.861Z,11.16
2019-05-03T21:58:48.842Z,11.06
2019-05-03T22:01:18.459Z,11.10
2019-05-03T22:03:48.266Z,11.17
2019-05-03T22:06:17.705Z,11.19
2019-05-03T22:08:47.475Z,11.04
2019-05-03T22:11:17.188Z,11.15
2019-05-03T22:13:48.540Z,11.18
2019-05-03T22:16:34.939Z,11.18
2019-05-03T22:19:04.652Z,11.21
2019-05-03T22:21:36.966Z,11.23
2019-05-03T22:24:11.635Z,11.15
2019-05-03T22:26:58.057Z,11.24
2019-05-03T22:29:27.843Z,11.18
2019-05-03T22:31:57.701Z,11.08
2019-05-03T22:34:27.146Z,11.16
2019-05-03T22:36:56.587Z,11.00
2019-05-03T22:39:26.087Z,11.04
2019-05-03T22:41:55.878Z,11.05
2019-05-03T22:44:25.690Z,11.09
2019-05-03T22:46:55.343Z,11.05
2019-05-03T22:49:26.041Z,11.08
2019-05-03T22:51:55.690Z,11.05
2019-05-03T22:54:25.448Z,11.03
2019-05-03T22:56:55.610Z,11.03
2019-05-03T22:59:25.567Z,10.93
2019-05-03T23:01:55.398Z,10.89
2019-05-03T23:04:25.501Z,10.95
2019-05-03T23:06:55.742Z,10.94
2019-05-03T23:09:25.320Z,10.94
2019-05-03T23:11:55.207Z,10.87
2019-05-03T23:14:25.789Z,10.83
2019-05-03T23:16:55.246Z,10.85
2019-05-03T23:19:24.693Z,10.77
2019-05-03T23:22:04.870Z,10.74
2019-05-03T23:24:35.237Z,10.79
2019-05-03T23:27:05.301Z,10.78
2019-05-03T23:29:35.152Z,10.66
2019-05-03T23:32:04.854Z,10.54
2019-05-03T23:34:35.112Z,10.56
2019-05-03T23:37:05.499Z,10.87
2019-05-03T23:39:35.079Z,10.75
2019-05-03T23:42:05.550Z,10.64
2019-05-03T23:44:35.428Z,10.54
2019-05-03T23:47:12.282Z,10.51
2019-05-03T23:49:41.986Z,10.48
2019-05-03T23:52:21.780Z,10.48
2019-05-03T23:54:51.544Z,10.38
2019-05-03T23:57:21.254Z,10.42
2019-05-03T23:59:50.960Z,10.48
